createdAt,value
2019-03-26T00:00:56.122Z,5.90
2019-03-26T00:01:56.066Z,6.00
2019-03-26T00:02:56.073Z,6.00
2019-03-26T00:04:05.612Z,7.30
2019-03-26T00:04:56.093Z,6.60
2019-03-26T00:05:56.081Z,6.40
2019-03-26T00:06:56.133Z,6.60
2019-03-26T00:07:56.146Z,6.00
2019-03-26T00:08:56.096Z,5.80
2019-03-26T00:09:56.105Z,6.90
2019-03-26T00:10:56.137Z,6.70
2019-03-26T00:11:56.088Z,8.20
2019-03-26T00:12:56.119Z,9.00
2019-03-26T00:13:57.795Z,7.40
2019-03-26T00:14:56.094Z,6.90
2019-03-26T00:15:56.126Z,6.70
2019-03-26T00:16:56.121Z,6.50
2019-03-26T00:17:56.163Z,7.90
2019-03-26T00:18:56.230Z,7.50
2019-03-26T00:19:56.147Z,6.90
2019-03-26T00:20:56.169Z,7.60
2019-03-26T00:21:56.128Z,7.20
2019-03-26T00:22:56.163Z,7.20
2019-03-26T00:23:56.126Z,7.00
2019-03-26T00:24:56.116Z,7.50
2019-03-26T00:25:56.128Z,7.20
2019-03-26T00:26:56.195Z,7.10
2019-03-26T00:27:56.142Z,7.10
2019-03-26T00:28:56.192Z,6.90
2019-03-26T00:29:56.137Z,7.30
2019-03-26T00:30:56.166Z,7.10
2019-03-26T00:31:56.160Z,7.70
2019-03-26T00:32:56.182Z,7.40
2019-03-26T00:33:56.182Z,8.10
2019-03-26T00:34:56.205Z,7.30
2019-03-26T00:35:56.203Z,8.00
2019-03-26T00:36:56.210Z,7.70
2019-03-26T00:37:56.215Z,7.70
2019-03-26T00:38:56.177Z,7.80
2019-03-26T00:39:56.201Z,8.00
2019-03-26T00:40:56.224Z,7.50
2019-03-26T00:41:56.194Z,7.90
2019-03-26T00:42:56.182Z,7.80
2019-03-26T00:43:56.196Z,7.90
2019-03-26T00:44:56.256Z,7.60
2019-03-26T00:45:56.202Z,7.90
2019-03-26T00:46:56.243Z,7.60
2019-03-26T00:47:56.225Z,7.90
2019-03-26T00:48:56.226Z,7.60
2019-03-26T00:49:56.212Z,7.90
2019-03-26T00:50:56.242Z,8.70
2019-03-26T00:51:56.275Z,7.60
2019-03-26T00:52:56.204Z,7.80
2019-03-26T00:53:56.225Z,8.00
2019-03-26T00:54:56.266Z,7.80
2019-03-26T00:55:56.292Z,8.00
2019-03-26T00:56:56.263Z,7.70
2019-03-26T00:57:56.264Z,8.00
2019-03-26T00:58:56.240Z,7.70
2019-03-26T00:59:56.226Z,8.00
2019-03-26T01:00:56.281Z,8.10
2019-03-26T01:01:56.257Z,7.70
2019-03-26T01:02:56.270Z,7.50
2019-03-26T01:03:56.264Z,8.20
2019-03-26T01:04:56.273Z,8.00
2019-03-26T01:05:56.310Z,8.60
2019-03-26T01:06:56.285Z,7.80
2019-03-26T01:07:56.291Z,7.60
2019-03-26T01:08:56.396Z,8.00
2019-03-26T01:09:56.277Z,8.00
2019-03-26T01:10:56.383Z,8.40
2019-03-26T01:11:56.286Z,7.90
2019-03-26T01:12:56.320Z,8.30
2019-03-26T01:13:56.598Z,7.80
2019-03-26T01:14:56.275Z,8.20
2019-03-26T06:14:01.470Z,8.40
2019-03-26T06:15:01.274Z,12.70
2019-03-26T06:16:01.229Z,13.20
2019-03-26T06:17:01.813Z,13.70
2019-03-26T06:18:01.256Z,14.40
2019-03-26T06:19:00.990Z,14.70
2019-03-26T06:20:01.617Z,12.50
2019-03-26T06:21:01.096Z,13.10
2019-03-26T06:22:01.104Z,13.00
2019-03-26T06:23:00.999Z,14.60
2019-03-26T06:24:01.070Z,13.80
2019-03-26T06:25:01.225Z,14.10
2019-03-26T06:26:02.928Z,16.10
2019-03-26T06:27:02.487Z,14.20
2019-03-26T06:28:01.571Z,15.10
2019-03-26T06:29:06.403Z,14.80
2019-03-26T06:30:01.866Z,16.20
2019-03-26T06:31:01.048Z,13.80
2019-03-26T06:32:01.055Z,15.20
2019-03-26T06:33:01.052Z,15.90
2019-03-26T06:34:01.693Z,16.10
2019-03-26T06:35:01.026Z,15.60
2019-03-26T06:36:01.311Z,14.40
2019-03-26T06:37:01.121Z,12.40
2019-03-26T06:38:01.288Z,13.80
2019-03-26T06:39:01.205Z,13.90
2019-03-26T06:40:01.001Z,13.40
2019-03-26T07:05:43.564Z,13.60
2019-03-26T07:06:43.530Z,9.10
2019-03-26T07:07:43.532Z,9.30
2019-03-26T07:08:43.532Z,10.60
2019-03-26T07:09:43.571Z,11.10
2019-03-26T07:10:43.546Z,8.80
2019-03-26T07:11:43.538Z,11.00
2019-03-26T07:12:43.563Z,11.70
2019-03-26T07:13:43.541Z,10.80
2019-03-26T07:14:43.599Z,11.90
2019-03-26T07:15:43.597Z,10.60
2019-03-26T07:16:43.566Z,10.00
2019-03-26T07:17:43.576Z,8.80
2019-03-26T07:18:43.580Z,11.00
2019-03-26T07:19:43.600Z,9.20
2019-03-26T07:20:43.613Z,9.40
2019-03-26T07:21:49.510Z,10.10
2019-03-26T07:22:43.586Z,9.80
2019-03-26T07:23:43.605Z,9.30
2019-03-26T07:24:43.607Z,10.20
2019-03-26T07:25:43.637Z,11.40
2019-03-26T07:26:43.691Z,11.70
2019-03-26T07:27:43.597Z,13.70
2019-03-26T07:28:43.602Z,9.90
2019-03-26T07:29:43.611Z,10.60
2019-03-26T07:30:43.666Z,9.90
2019-03-26T07:31:43.660Z,10.20
2019-03-26T07:32:43.647Z,11.00
2019-03-26T07:33:43.660Z,10.50
2019-03-26T07:34:43.642Z,8.50
2019-03-26T07:35:43.639Z,9.50
2019-03-26T07:36:43.643Z,9.70
2019-03-26T07:37:45.508Z,9.40
2019-03-26T07:38:43.651Z,9.60
2019-03-26T07:39:43.657Z,8.40
2019-03-26T07:40:43.686Z,9.40
2019-03-26T07:41:43.668Z,7.90
2019-03-26T07:42:43.700Z,8.60
2019-03-26T07:43:43.750Z,10.20
2019-03-26T07:44:45.454Z,9.60
2019-03-26T07:45:43.694Z,9.60
2019-03-26T07:46:43.709Z,8.90
2019-03-26T07:47:43.754Z,9.70
2019-03-26T07:48:43.714Z,10.40
2019-03-26T07:49:43.699Z,9.80
2019-03-26T07:50:43.705Z,9.30
2019-03-26T07:51:43.709Z,9.10
2019-03-26T07:52:43.715Z,8.60
2019-03-26T07:53:43.754Z,9.10
2019-03-26T07:54:43.767Z,8.10
2019-03-26T07:55:44.119Z,8.30
2019-03-26T07:56:43.735Z,10.00
2019-03-26T07:57:43.740Z,8.80
2019-03-26T07:58:43.800Z,12.00
2019-03-26T07:59:43.755Z,9.10
2019-03-26T08:00:43.788Z,6.80
2019-03-26T08:01:43.756Z,7.90
2019-03-26T08:02:43.754Z,8.00
2019-03-26T08:03:43.820Z,10.30
2019-03-26T08:04:43.775Z,7.60
2019-03-26T08:05:43.776Z,7.90
2019-03-26T08:06:43.783Z,9.40
2019-03-26T08:07:43.771Z,9.40
2019-03-26T08:08:43.803Z,10.90
2019-03-26T08:09:43.818Z,10.10
2019-03-26T08:10:43.799Z,10.00
2019-03-26T08:11:43.803Z,8.70
2019-03-26T08:12:43.829Z,8.60
2019-03-26T08:13:43.839Z,8.00
2019-03-26T08:14:43.898Z,7.10
2019-03-26T08:15:43.838Z,8.20
2019-03-26T08:16:43.854Z,9.10
2019-03-26T08:17:45.353Z,10.60
2019-03-26T08:18:43.838Z,8.50
2019-03-26T08:19:43.891Z,9.60
2019-03-26T08:20:43.900Z,9.10
2019-03-26T08:21:43.858Z,9.70
2019-03-26T08:22:43.907Z,8.40
2019-03-26T08:23:43.871Z,9.40
2019-03-26T08:24:43.876Z,9.80
2019-03-26T08:25:43.891Z,7.60
2019-03-26T08:26:43.906Z,6.90
2019-03-26T08:27:43.900Z,8.40
2019-03-26T08:28:43.924Z,8.80
2019-03-26T08:29:43.898Z,10.40
2019-03-26T08:30:43.971Z,8.90
2019-03-26T08:31:43.913Z,9.00
2019-03-26T08:32:43.919Z,7.60
2019-03-26T08:33:43.946Z,7.60
2019-03-26T08:34:46.575Z,9.00
2019-03-26T08:35:44.003Z,7.80
2019-03-26T08:36:43.954Z,9.80
2019-03-26T08:37:43.979Z,9.50
2019-03-26T08:38:43.942Z,6.30
2019-03-26T08:39:43.978Z,9.40
2019-03-26T08:40:43.998Z,9.20
2019-03-26T08:41:43.995Z,7.10
2019-03-26T08:42:43.971Z,8.30
2019-03-26T08:43:43.968Z,8.70
2019-03-26T08:44:44.021Z,8.30
2019-03-26T08:45:43.991Z,8.80
2019-03-26T08:46:46.293Z,11.20
2019-03-26T08:47:44.041Z,9.40
2019-03-26T08:48:43.988Z,7.00
2019-03-26T08:49:43.997Z,7.40
2019-03-26T08:50:44.002Z,9.20
2019-03-26T08:51:44.045Z,9.60
2019-03-26T08:52:44.060Z,8.20
2019-03-26T08:53:44.031Z,7.80
2019-03-26T08:54:44.042Z,7.50
2019-03-26T08:55:44.058Z,5.80
2019-03-26T08:56:44.102Z,7.60
2019-03-26T08:57:44.047Z,6.20
2019-03-26T08:58:44.067Z,6.70
2019-03-26T08:59:44.073Z,6.70
2019-03-26T09:00:44.075Z,5.20
2019-03-26T09:01:44.089Z,6.20
2019-03-26T09:02:44.153Z,6.20
2019-03-26T09:03:44.087Z,7.70
2019-03-26T09:04:44.100Z,5.80
2019-03-26T09:05:44.120Z,5.60
2019-03-26T09:06:44.110Z,5.30
2019-03-26T09:07:44.130Z,5.60
2019-03-26T09:08:44.724Z,5.70
2019-03-26T09:09:44.128Z,6.50
2019-03-26T09:10:51.651Z,6.90
2019-03-26T09:11:44.140Z,5.80
2019-03-26T09:12:44.175Z,5.20
2019-03-26T09:13:44.156Z,4.90
2019-03-26T09:14:44.162Z,5.10
2019-03-26T09:15:44.165Z,4.50
2019-03-26T09:16:44.183Z,5.20
2019-03-26T09:17:44.821Z,5.90
2019-03-26T09:18:44.194Z,6.10
2019-03-26T09:19:44.280Z,6.20
2019-03-26T09:20:44.230Z,6.80
2019-03-26T09:21:44.219Z,7.30
2019-03-26T09:22:44.199Z,4.70
2019-03-26T09:23:44.261Z,6.20
2019-03-26T09:24:44.453Z,6.50
2019-03-26T09:25:44.235Z,6.90
2019-03-26T09:26:44.221Z,6.40
2019-03-26T09:27:44.308Z,7.60
2019-03-26T09:28:44.264Z,6.20
2019-03-26T09:29:44.228Z,7.20
2019-03-26T09:30:44.307Z,6.60
2019-03-26T09:31:44.235Z,8.30
2019-03-26T09:32:44.243Z,7.70
2019-03-26T09:33:44.260Z,6.80
2019-03-26T09:34:44.301Z,4.40
2019-03-26T09:35:44.474Z,6.30
2019-03-26T09:36:44.279Z,7.20
2019-03-26T09:37:44.299Z,6.90
2019-03-26T09:38:44.295Z,5.70
2019-03-26T09:39:44.308Z,6.10
2019-03-26T09:40:44.298Z,6.00
2019-03-26T09:41:44.366Z,6.90
2019-03-26T09:42:44.321Z,5.60
2019-03-26T09:43:44.316Z,6.80
2019-03-26T09:44:44.317Z,5.60
2019-03-26T09:45:44.336Z,7.00
2019-03-26T09:46:44.390Z,5.40
2019-03-26T09:47:44.361Z,3.80
2019-03-26T09:48:44.363Z,5.30
2019-03-26T09:49:44.360Z,6.60
2019-03-26T09:50:44.380Z,5.30
2019-03-26T09:51:44.378Z,7.00
2019-03-26T09:52:44.404Z,6.90
2019-03-26T09:53:44.381Z,5.30
2019-03-26T09:54:44.398Z,5.20
2019-03-26T09:55:44.406Z,6.30
2019-03-26T09:56:44.404Z,6.30
2019-03-26T09:57:44.441Z,4.10
2019-03-26T09:58:44.426Z,6.80
2019-03-26T09:59:44.422Z,6.00
2019-03-26T10:00:44.609Z,5.90
2019-03-26T10:01:44.430Z,6.30
2019-03-26T10:02:44.601Z,4.60
2019-03-26T10:03:44.454Z,8.10
2019-03-26T10:04:44.459Z,6.80
2019-03-26T10:05:44.453Z,6.60
2019-03-26T10:06:44.470Z,5.20
2019-03-26T10:07:45.997Z,6.20
2019-03-26T10:08:52.296Z,6.00
2019-03-26T10:09:44.503Z,7.80
2019-03-26T10:10:44.555Z,7.90
2019-03-26T10:11:44.505Z,5.60
2019-03-26T10:12:44.529Z,7.90
2019-03-26T10:13:44.541Z,6.20
2019-03-26T10:14:44.536Z,5.70
2019-03-26T10:15:44.536Z,9.00
2019-03-26T10:16:44.624Z,5.70
2019-03-26T10:17:44.565Z,7.50
2019-03-26T10:18:44.542Z,5.90
2019-03-26T10:19:44.566Z,10.20
2019-03-26T10:20:44.585Z,8.70
2019-03-26T10:21:44.557Z,6.40
2019-03-26T10:22:44.588Z,6.40
2019-03-26T10:23:44.597Z,5.60
2019-03-26T10:24:44.599Z,7.90
2019-03-26T10:25:44.594Z,5.20
2019-03-26T10:26:44.626Z,7.70
2019-03-26T10:27:44.623Z,6.50
2019-03-26T10:28:45.141Z,7.00
2019-03-26T10:29:44.638Z,10.70
2019-03-26T10:30:44.709Z,6.80
2019-03-26T10:31:44.868Z,7.30
2019-03-26T10:32:44.622Z,6.80
2019-03-26T10:33:44.642Z,6.60
2019-03-26T10:34:44.670Z,5.50
2019-03-26T10:35:44.695Z,7.20
2019-03-26T10:36:44.648Z,5.90
2019-03-26T10:37:44.672Z,6.70
2019-03-26T10:38:44.671Z,7.50
2019-03-26T10:39:44.682Z,7.10
2019-03-26T10:40:44.772Z,4.80
2019-03-26T10:41:44.723Z,6.50
2019-03-26T10:42:44.757Z,7.40
2019-03-26T10:43:44.692Z,6.30
2019-03-26T10:44:44.701Z,5.60
2019-03-26T10:45:44.734Z,7.50
2019-03-26T10:46:44.774Z,5.60
2019-03-26T10:47:44.735Z,8.00
2019-03-26T10:48:44.803Z,7.10
2019-03-26T10:49:44.732Z,5.30
2019-03-26T10:50:44.760Z,6.80
2019-03-26T10:51:44.774Z,6.10
2019-03-26T10:52:44.802Z,5.80
2019-03-26T10:53:44.798Z,4.80
2019-03-26T10:54:44.802Z,5.60
2019-03-26T10:55:44.788Z,4.10
2019-03-26T10:56:44.847Z,5.10
2019-03-26T10:57:44.788Z,4.90
2019-03-26T10:58:44.795Z,5.10
2019-03-26T10:59:44.816Z,4.80
2019-03-26T11:00:45.241Z,6.10
2019-03-26T11:01:44.812Z,5.50
2019-03-26T11:02:45.071Z,5.90
2019-03-26T11:03:44.899Z,6.60
2019-03-26T11:04:44.852Z,5.70
2019-03-26T11:05:44.837Z,5.60
2019-03-26T11:06:44.869Z,8.10
2019-03-26T11:07:44.860Z,5.90
2019-03-26T11:08:45.322Z,6.60
2019-03-26T11:09:44.914Z,6.90
2019-03-26T11:10:44.875Z,6.00
2019-03-26T11:11:44.883Z,6.30
2019-03-26T11:12:44.908Z,6.90
2019-03-26T11:13:44.916Z,5.70
2019-03-26T11:14:44.923Z,8.00
2019-03-26T11:15:44.931Z,8.70
2019-03-26T11:16:44.942Z,5.40
2019-03-26T11:17:45.016Z,7.10
2019-03-26T11:18:44.950Z,6.70
2019-03-26T11:19:46.402Z,5.20
2019-03-26T11:20:44.964Z,5.20
2019-03-26T11:21:44.943Z,5.80
2019-03-26T11:22:44.943Z,5.70
2019-03-26T11:23:44.966Z,7.10
2019-03-26T11:24:44.992Z,6.30
2019-03-26T11:25:45.020Z,7.90
2019-03-26T11:26:44.977Z,7.10
2019-03-26T11:27:44.977Z,6.80
2019-03-26T11:28:45.027Z,7.50
2019-03-26T11:29:45.045Z,7.50
2019-03-26T11:30:44.998Z,7.30
2019-03-26T11:31:45.056Z,6.50
2019-03-26T11:32:45.033Z,7.50
2019-03-26T11:33:45.033Z,6.00
2019-03-26T11:34:45.043Z,7.10
2019-03-26T11:35:45.082Z,5.80
2019-03-26T11:36:45.053Z,7.70
2019-03-26T11:37:45.062Z,6.40
2019-03-26T11:38:45.054Z,6.80
2019-03-26T11:39:45.080Z,5.60
2019-03-26T11:40:45.068Z,6.30
2019-03-26T11:41:45.107Z,6.50
2019-03-26T11:42:45.119Z,4.70
2019-03-26T11:43:45.090Z,5.90
2019-03-26T11:44:45.085Z,5.50
2019-03-26T11:45:45.108Z,4.70
2019-03-26T11:46:45.110Z,5.70
2019-03-26T11:47:45.170Z,5.20
2019-03-26T11:48:45.130Z,6.60
2019-03-26T11:49:45.134Z,6.50
2019-03-26T11:50:45.125Z,4.30
2019-03-26T11:51:45.140Z,5.30
2019-03-26T11:52:45.142Z,7.00
2019-03-26T11:53:45.201Z,5.60
2019-03-26T11:54:45.159Z,4.90
2019-03-26T11:55:45.175Z,4.60
2019-03-26T11:56:45.185Z,5.10
2019-03-26T11:57:45.190Z,5.80
2019-03-26T11:58:45.194Z,4.80
2019-03-26T11:59:45.218Z,4.60
2019-03-26T12:00:45.200Z,5.40
2019-03-26T12:01:45.208Z,5.90
2019-03-26T12:02:45.248Z,6.20
2019-03-26T12:03:45.205Z,4.90
2019-03-26T12:04:45.225Z,4.40
2019-03-26T12:05:45.236Z,5.20
2019-03-26T12:06:45.253Z,6.20
2019-03-26T12:07:45.245Z,5.30
2019-03-26T12:08:45.246Z,4.40
2019-03-26T12:09:46.796Z,4.10
2019-03-26T12:10:45.266Z,4.20
2019-03-26T12:11:45.259Z,4.10
2019-03-26T12:12:45.276Z,3.20
2019-03-26T12:13:45.287Z,4.80
2019-03-26T12:14:45.352Z,6.10
2019-03-26T12:15:45.293Z,4.30
2019-03-26T12:16:45.267Z,6.10
2019-03-26T12:17:45.276Z,4.10
2019-03-26T12:18:45.279Z,4.80
2019-03-26T12:19:45.282Z,3.70
2019-03-26T12:20:45.327Z,5.10
2019-03-26T12:21:45.322Z,5.20
2019-03-26T12:22:45.311Z,5.40
2019-03-26T12:23:45.311Z,4.10
2019-03-26T12:24:45.358Z,8.50
2019-03-26T12:25:45.377Z,5.20
2019-03-26T12:26:45.384Z,6.00
2019-03-26T12:27:45.347Z,4.40
2019-03-26T12:28:45.356Z,4.20
2019-03-26T12:29:45.344Z,5.10
2019-03-26T12:30:45.358Z,5.80
2019-03-26T12:31:45.406Z,4.70
2019-03-26T12:32:45.380Z,4.50
2019-03-26T12:33:45.372Z,5.50
2019-03-26T12:34:45.384Z,5.10
2019-03-26T12:35:45.425Z,4.30
2019-03-26T12:36:45.394Z,5.40
2019-03-26T12:37:45.449Z,5.40
2019-03-26T12:38:45.398Z,6.30
2019-03-26T12:39:58.605Z,4.20
2019-03-26T12:40:45.410Z,4.20
2019-03-26T12:41:45.417Z,6.40
2019-03-26T12:42:45.442Z,4.10
2019-03-26T12:43:45.454Z,5.60
2019-03-26T12:44:45.439Z,4.00
2019-03-26T12:45:45.444Z,4.90
2019-03-26T12:46:45.449Z,3.80
2019-03-26T12:47:45.486Z,5.00
2019-03-26T12:48:45.477Z,4.40
2019-03-26T12:49:45.489Z,5.60
2019-03-26T12:50:45.451Z,3.60
2019-03-26T12:51:45.487Z,4.40
2019-03-26T12:52:45.472Z,3.80
2019-03-26T12:53:45.487Z,3.90
2019-03-26T12:54:45.472Z,5.20
2019-03-26T12:55:45.483Z,3.80
2019-03-26T12:56:45.540Z,4.80
2019-03-26T12:57:45.507Z,5.90
2019-03-26T12:58:45.535Z,4.50
2019-03-26T12:59:45.511Z,5.10
2019-03-26T13:00:45.513Z,4.30
2019-03-26T13:01:45.532Z,4.50
2019-03-26T13:02:45.529Z,4.00
2019-03-26T13:03:45.639Z,4.90
2019-03-26T13:04:45.530Z,5.70
2019-03-26T13:05:45.567Z,3.30
2019-03-26T13:06:45.557Z,3.60
2019-03-26T13:07:45.568Z,5.00
2019-03-26T13:08:45.612Z,3.90
2019-03-26T13:09:45.628Z,3.70
2019-03-26T13:10:53.263Z,3.20
2019-03-26T13:11:45.604Z,4.90
2019-03-26T13:12:45.606Z,3.00
2019-03-26T13:13:45.617Z,3.00
2019-03-26T13:14:45.610Z,3.80
2019-03-26T13:15:45.663Z,2.60
2019-03-26T13:16:45.619Z,3.50
2019-03-26T13:17:45.622Z,2.40
2019-03-26T13:18:45.670Z,3.30
2019-03-26T13:19:45.639Z,3.60
2019-03-26T13:20:45.641Z,3.00
2019-03-26T13:21:45.669Z,2.90
2019-03-26T13:22:45.654Z,2.70
2019-03-26T13:23:45.669Z,2.70
2019-03-26T13:24:45.674Z,2.60
2019-03-26T13:25:45.689Z,2.30
2019-03-26T13:26:48.770Z,1.80
2019-03-26T13:27:45.756Z,3.40
2019-03-26T13:28:45.702Z,3.20
2019-03-26T13:29:45.701Z,3.20
2019-03-26T13:30:45.778Z,2.20
2019-03-26T13:31:45.725Z,3.00
2019-03-26T13:32:45.732Z,3.80
2019-03-26T13:33:45.737Z,3.80
2019-03-26T13:34:45.733Z,3.00
2019-03-26T13:35:45.737Z,3.40
2019-03-26T13:36:45.766Z,2.40
2019-03-26T13:37:45.765Z,3.20
2019-03-26T13:38:45.772Z,2.80
2019-03-26T13:39:45.767Z,3.20
2019-03-26T13:40:45.786Z,3.20
2019-03-26T13:41:45.786Z,3.10
2019-03-26T13:42:45.814Z,4.10
2019-03-26T13:43:45.803Z,2.20
2019-03-26T13:44:45.812Z,2.80
2019-03-26T13:45:45.821Z,3.40
2019-03-26T13:46:45.830Z,3.10
2019-03-26T13:47:45.833Z,3.20
2019-03-26T13:48:45.812Z,1.90
2019-03-26T13:49:45.841Z,2.70
2019-03-26T13:50:45.847Z,3.20
2019-03-26T13:51:45.854Z,2.70
2019-03-26T13:52:45.906Z,2.70
2019-03-26T13:53:45.868Z,2.20
2019-03-26T13:54:45.860Z,3.40
2019-03-26T13:55:45.894Z,2.30
2019-03-26T13:56:45.860Z,3.30
2019-03-26T13:57:45.897Z,3.10
2019-03-26T13:58:45.908Z,2.50
2019-03-26T13:59:48.889Z,2.70
2019-03-26T14:00:45.943Z,2.10
2019-03-26T14:01:45.933Z,2.90
2019-03-26T14:02:45.909Z,3.10
2019-03-26T14:03:45.953Z,3.50
2019-03-26T14:04:46.011Z,4.00
2019-03-26T14:05:45.921Z,3.20
2019-03-26T14:06:45.931Z,4.10
2019-03-26T14:07:45.945Z,3.30
2019-03-26T14:08:45.950Z,4.10
2019-03-26T14:09:45.943Z,4.00
2019-03-26T14:10:45.993Z,4.10
2019-03-26T14:11:45.983Z,4.10
2019-03-26T14:12:45.964Z,4.70
2019-03-26T14:13:45.986Z,3.60
2019-03-26T14:14:45.972Z,3.40
2019-03-26T14:15:46.037Z,4.10
2019-03-26T14:16:45.986Z,4.50
2019-03-26T14:17:45.998Z,3.60
2019-03-26T14:18:46.005Z,4.50
2019-03-26T14:19:46.004Z,3.40
2019-03-26T14:20:46.027Z,3.80
2019-03-26T14:21:46.029Z,5.00
2019-03-26T14:22:46.036Z,3.70
2019-03-26T14:23:46.037Z,5.40
2019-03-26T14:24:46.051Z,3.10
2019-03-26T14:25:46.088Z,4.70
2019-03-26T14:26:46.077Z,5.30
2019-03-26T14:27:46.058Z,4.30
2019-03-26T14:28:46.064Z,4.50
2019-03-26T14:29:46.067Z,4.00
2019-03-26T14:30:46.082Z,4.80
2019-03-26T14:31:46.095Z,4.70
2019-03-26T14:32:46.089Z,4.50
2019-03-26T14:33:46.130Z,5.40
2019-03-26T14:34:50.216Z,4.00
2019-03-26T14:35:46.116Z,3.40
2019-03-26T14:36:46.172Z,3.70
2019-03-26T14:37:51.502Z,5.10
2019-03-26T14:38:46.152Z,3.70
2019-03-26T14:39:46.115Z,4.80
2019-03-26T14:40:54.734Z,4.10
2019-03-26T14:41:46.119Z,3.90
2019-03-26T14:42:46.131Z,4.10
2019-03-26T14:43:46.164Z,3.90
2019-03-26T14:44:46.169Z,3.80
2019-03-26T14:45:46.150Z,4.90
2019-03-26T14:46:46.154Z,6.50
2019-03-26T14:47:46.197Z,2.40
2019-03-26T14:48:46.168Z,4.40
2019-03-26T14:49:46.170Z,3.10
2019-03-26T14:50:46.216Z,3.60
2019-03-26T14:51:46.181Z,4.30
2019-03-26T14:52:46.191Z,4.60
2019-03-26T14:53:46.243Z,4.10
2019-03-26T14:54:46.212Z,3.70
2019-03-26T14:55:46.262Z,4.50
2019-03-26T14:56:46.202Z,3.60
2019-03-26T14:57:46.217Z,4.80
2019-03-26T14:58:46.223Z,4.40
2019-03-26T14:59:46.289Z,3.10
2019-03-26T15:00:46.240Z,4.90
2019-03-26T15:01:46.302Z,3.40
2019-03-26T15:02:46.263Z,3.60
2019-03-26T15:03:46.264Z,3.20
2019-03-26T15:04:46.255Z,4.90
2019-03-26T15:05:46.275Z,3.30
2019-03-26T15:06:46.286Z,4.40
2019-03-26T15:07:46.289Z,3.60
2019-03-26T15:08:46.302Z,4.30
2019-03-26T15:09:46.286Z,4.80
2019-03-26T15:10:46.295Z,3.80
2019-03-26T15:11:46.295Z,4.30
2019-03-26T15:12:46.376Z,4.60
2019-03-26T15:13:49.333Z,4.10
2019-03-26T15:14:46.317Z,3.60
2019-03-26T15:15:46.325Z,4.50
2019-03-26T15:16:46.344Z,4.80
2019-03-26T15:17:46.345Z,4.20
2019-03-26T15:18:46.375Z,3.10
2019-03-26T15:19:46.390Z,3.90
2019-03-26T15:20:46.363Z,4.50
2019-03-26T15:21:46.349Z,2.20
2019-03-26T15:22:46.402Z,4.10
2019-03-26T15:23:46.364Z,3.40
2019-03-26T15:24:46.394Z,4.10
2019-03-26T15:25:46.372Z,3.70
2019-03-26T15:26:46.402Z,5.60
2019-03-26T15:27:46.429Z,3.60
2019-03-26T15:28:46.382Z,4.20
2019-03-26T15:29:46.391Z,3.40
2019-03-26T15:30:46.403Z,4.60
2019-03-26T15:31:46.414Z,3.00
2019-03-26T15:32:46.711Z,4.70
2019-03-26T15:33:46.462Z,4.10
2019-03-26T15:34:46.421Z,4.70
2019-03-26T15:35:46.434Z,5.40
2019-03-26T15:36:46.441Z,3.10
2019-03-26T15:37:46.460Z,4.20
2019-03-26T15:38:46.493Z,4.80
2019-03-26T15:39:46.503Z,3.60
2019-03-26T15:40:46.463Z,3.60
2019-03-26T15:41:46.470Z,4.10
2019-03-26T15:42:46.481Z,3.60
2019-03-26T15:43:46.475Z,4.60
2019-03-26T15:44:46.521Z,5.50
2019-03-26T15:45:46.484Z,4.00
2019-03-26T15:46:46.495Z,4.30
2019-03-26T15:47:46.498Z,3.30
2019-03-26T15:48:46.523Z,5.80
2019-03-26T15:49:46.507Z,5.70
2019-03-26T15:50:46.568Z,4.00
2019-03-26T15:51:46.511Z,4.40
2019-03-26T15:52:46.527Z,5.40
2019-03-26T15:53:46.538Z,3.10
2019-03-26T15:54:46.541Z,3.10
2019-03-26T15:55:46.553Z,3.30
2019-03-26T15:56:46.587Z,4.40
2019-03-26T15:57:46.589Z,3.20
2019-03-26T15:58:46.572Z,3.90
2019-03-26T15:59:46.596Z,4.70
